Airfield :







YOU CAN JOIN US ON...

 
LOGIN :

Register | Disclaimer

   EN    FR    IT 

 









Legend :    VFR   Marginal VFR   IFR   Intensive IFR   Very Intensive IFR
Visi :
Ceiling :
>= 8 km
>= 3000ft
5 to 8 km
1000 to 3000 ft
1500m to 5 km
500 to 1000 ft
800 to 1500m
200 to 500 ft
< 800m
< 200 ft
Symbols :   Thunderstorms  Fog  Heavy snow  Heavy precipitations  Wind > 20 kt







- Airport Elevation : 39 ft
- IATA code : YNA


CYNA - Natashquan

CURRENT METAR :
  • 221900Z AUTO 02012KT 9SM OVC055 12/M02 A3003 RMK SLP171

EXPIRED METARs :
  • 221800Z AUTO 01013KT 9SM OVC055 11/M01 A3003 RMK SLP171
  • 221700Z AUTO 02015KT 9SM OVC055 11/M01 A3003 RMK SLP171

TAF TAF CYNA
Valid from the 22 at 14:00 until the 23 at 02:00 UTC


221338Z 2214/2302 04015G25KT P6SM BKN030
TEMPO 2214/2218 OVC020
BECMG 2214/2216 02015G25KT
FM221800 01015G25KT P6SM SCT020
TEMPO 2218/2221 BKN020
FM222100 36015G25KT P6SM FEW020
BECMG 2300/2302 36012KT RMK FCST BASED ON AUTO OBS. NXT FCST BY 222000Z
CZUL FIR / North America



MET'MAP, your aeronautical weather chart ! - Copyright ORBIFLY December 2007 - Disclaimer

ORBIFLY MET'MAP TEAM :

Programming & Development : Alexandra Zaïnal
Concept & Development : Baudouin d'Aumeries
Co-Development & Prog : Marc-Olivier Méhu
Technical & hardware support : Manuel Goepfert

Contact : metmap@orbifly.com




SOURCES & CREDITS :

   NOAA